KDAL/DAL METAR and TAF weather

Enter ICAO airport designator
Station Type Date Time Source
KDAL METAR 2018/12/10 16:53 UTC NOAA

KDAL 101653Z 29004KT 10SM CLR 10/M01 A3041 RMK AO2 SLP298 T01001006


Station Type Date Time Source
KDAL Decoded METAR 2018/12/10 16:53 UTC NOAA

DALLAS LOVE FIELD, TX, United States (KDAL) 32-51N 096-51W 158M
Dec 10, 2018 - 11:53 AM EST / 2018.12.10 1653 UTC
Wind: from the WNW (290 degrees) at 5 MPH (4 KT):0
Visibility: 10 mile(s):0
Sky conditions: clear
Temperature: 50.0 F (10.0 C)
Dew Point: 30.9 F (-0.6 C)
Relative Humidity: 47%
Pressure (altimeter): 30.41 in. Hg (1029 hPa)
ob: KDAL 101653Z 29004KT 10SM CLR 10/M01 A3041 RMK AO2 SLP298 T01001006
cycle: 17

Station Type Date Time Source
KDAL TAF 2018/12/10 18:33 UTC NOAA

TAF KDAL 101730Z 1018/1118 29005KT P6SM FEW300
FM102200 17004KT P6SM FEW300
FM111700 19013KT P6SM SCT300


Example: see airport list